ASA555 KSEA-PAKT
Flight info
| Callsign | ASA555 |
|---|---|
| Flight time | 1h 44m |
| Altitude | 38000 |
| Route | BANGR9 PANGL PR ANN |
| Aircraft | B737/M-SDE2E3FGHIRWXY/LB1 |
Departure
| Time | 2026-04-16 21:04 |
|---|---|
| Airport | Seattle–Tacoma International Airport (KSEA) |
Arrival
| Time | 2026-04-16 22:49 |
|---|---|
| Airport | Ketchikan International Airport (PAKT) |
| Time | Latitude | Longitude | Altitude | Speed | Heading |
|---|---|---|---|---|---|
| 2026-04-16 20:10 | 47.45622 | -122.30370 | 431 ft | 0 kts | 180° |
| 2026-04-16 20:57 | 47.45632 | -122.30370 | 425 ft | 4 kts | 180° |
| 2026-04-16 20:57 | 47.45659 | -122.30370 | 425 ft | 4 kts | 180° |
| 2026-04-16 20:58 | 47.45685 | -122.30369 | 424 ft | 0 kts | 180° |
| 2026-04-16 21:00 | 47.45681 | -122.30375 | 420 ft | 2 kts | 219° |
| 2026-04-16 21:01 | 47.45686 | -122.30400 | 421 ft | 4 kts | 303° |
| 2026-04-16 21:01 | 47.45712 | -122.30458 | 422 ft | 9 kts | 303° |
| 2026-04-16 21:01 | 47.45780 | -122.30493 | 425 ft | 12 kts | 0° |
| 2026-04-16 21:01 | 47.45871 | -122.30492 | 426 ft | 13 kts | 0° |
| 2026-04-16 21:02 | 47.45960 | -122.30493 | 425 ft | 13 kts | 358° |
| 2026-04-16 21:02 | 47.46047 | -122.30497 | 427 ft | 12 kts | 358° |
| 2026-04-16 21:02 | 47.46131 | -122.30490 | 428 ft | 12 kts | 360° |
| 2026-04-16 21:03 | 47.46291 | -122.30527 | 424 ft | 11 kts | 333° |
| 2026-04-16 21:03 | 47.46349 | -122.30605 | 425 ft | 11 kts | 306° |
| 2026-04-16 21:03 | 47.46367 | -122.30711 | 421 ft | 11 kts | 263° |
| 2026-04-16 21:03 | 47.46314 | -122.30775 | 422 ft | 10 kts | 187° |
| 2026-04-16 21:04 | 47.46210 | -122.30777 | 423 ft | 33 kts | 180° |
| 2026-04-16 21:04 | 47.45717 | -122.30782 | 425 ft | 106 kts | 180° |
| 2026-04-16 21:04 | 47.44777 | -122.30793 | 438 ft | 161 kts | 182° |
| 2026-04-16 21:04 | 47.43608 | -122.30792 | 1053 ft | 168 kts | 182° |
| 2026-04-16 21:05 | 47.42438 | -122.30786 | 1886 ft | 173 kts | 184° |
| 2026-04-16 21:05 | 47.41217 | -122.30809 | 2648 ft | 181 kts | 184° |
| 2026-04-16 21:05 | 47.39868 | -122.30875 | 3230 ft | 201 kts | 185° |
| 2026-04-16 21:05 | 47.38439 | -122.30929 | 3814 ft | 213 kts | 184° |
| 2026-04-16 21:06 | 47.36916 | -122.31004 | 4387 ft | 231 kts | 184° |
| 2026-04-16 21:06 | 47.35173 | -122.31079 | 4788 ft | 259 kts | 182° |
| 2026-04-16 21:06 | 47.33426 | -122.31526 | 5667 ft | 261 kts | 208° |
| 2026-04-16 21:06 | 47.32042 | -122.33193 | 6490 ft | 259 kts | 235° |
| 2026-04-16 21:07 | 47.31356 | -122.35618 | 7167 ft | 260 kts | 264° |
| 2026-04-16 21:07 | 47.31529 | -122.38270 | 7996 ft | 264 kts | 291° |
| 2026-04-16 21:07 | 47.32468 | -122.40576 | 8957 ft | 263 kts | 310° |
| 2026-04-16 21:07 | 47.33686 | -122.42590 | 9957 ft | 264 kts | 314° |
| 2026-04-16 21:08 | 47.34974 | -122.44598 | 10590 ft | 278 kts | 315° |
| 2026-04-16 21:08 | 47.36374 | -122.46761 | 10788 ft | 305 kts | 314° |
| 2026-04-16 21:08 | 47.37893 | -122.49120 | 10988 ft | 329 kts | 314° |
| 2026-04-16 21:08 | 47.39518 | -122.51664 | 11226 ft | 350 kts | 314° |
| 2026-04-16 21:09 | 47.41206 | -122.54327 | 11812 ft | 359 kts | 314° |
| 2026-04-16 21:09 | 47.42918 | -122.57043 | 12562 ft | 363 kts | 314° |
| 2026-04-16 21:09 | 47.44640 | -122.59784 | 13357 ft | 365 kts | 314° |
| 2026-04-16 21:09 | 47.46380 | -122.62559 | 14103 ft | 370 kts | 314° |
| 2026-04-16 21:10 | 47.48137 | -122.65367 | 14820 ft | 373 kts | 314° |
| 2026-04-16 21:10 | 47.49900 | -122.68188 | 15640 ft | 374 kts | 315° |
| 2026-04-16 21:10 | 47.51669 | -122.71023 | 16445 ft | 376 kts | 315° |
| 2026-04-16 21:10 | 47.53446 | -122.73871 | 17211 ft | 378 kts | 315° |
| 2026-04-16 21:11 | 47.55237 | -122.76745 | 17928 ft | 381 kts | 315° |
| 2026-04-16 21:11 | 47.57016 | -122.79603 | 18653 ft | 384 kts | 316° |
| 2026-04-16 21:11 | 47.58850 | -122.82554 | 19324 ft | 384 kts | 316° |
| 2026-04-16 21:11 | 47.60657 | -122.85465 | 20074 ft | 383 kts | 316° |
| 2026-04-16 21:12 | 47.62433 | -122.88328 | 20774 ft | 382 kts | 317° |
| 2026-04-16 21:12 | 47.64233 | -122.91233 | 21451 ft | 383 kts | 317° |
| 2026-04-16 21:12 | 47.66065 | -122.94094 | 22078 ft | 383 kts | 319° |
| 2026-04-16 21:12 | 47.67948 | -122.96880 | 22715 ft | 382 kts | 320° |
| 2026-04-16 21:13 | 47.69846 | -122.99637 | 23200 ft | 382 kts | 320° |
| 2026-04-16 21:13 | 47.71760 | -123.02399 | 23707 ft | 385 kts | 322° |
| 2026-04-16 21:13 | 47.73734 | -123.05080 | 24216 ft | 386 kts | 322° |
| 2026-04-16 21:13 | 47.75663 | -123.07885 | 24502 ft | 391 kts | 320° |
| 2026-04-16 21:14 | 47.77538 | -123.10825 | 25000 ft | 392 kts | 317° |
| 2026-04-16 21:14 | 47.79443 | -123.13695 | 25452 ft | 389 kts | 322° |
| 2026-04-16 21:14 | 47.81417 | -123.16464 | 25818 ft | 394 kts | 318° |
| 2026-04-16 21:14 | 47.83290 | -123.19451 | 26226 ft | 393 kts | 320° |
| 2026-04-16 21:15 | 47.85204 | -123.22377 | 26562 ft | 395 kts | 319° |
| 2026-04-16 21:15 | 47.87155 | -123.25264 | 26928 ft | 396 kts | 320° |
| 2026-04-16 21:15 | 47.89122 | -123.28152 | 27307 ft | 397 kts | 320° |
| 2026-04-16 21:15 | 47.91069 | -123.31090 | 27755 ft | 399 kts | 318° |
| 2026-04-16 21:16 | 47.92997 | -123.34020 | 28327 ft | 392 kts | 321° |
| 2026-04-16 21:16 | 47.94970 | -123.36803 | 28872 ft | 390 kts | 320° |
| 2026-04-16 21:16 | 47.96896 | -123.39650 | 29359 ft | 389 kts | 319° |
| 2026-04-16 21:16 | 47.98797 | -123.42508 | 29889 ft | 387 kts | 319° |
| 2026-04-16 21:17 | 48.00669 | -123.45375 | 30364 ft | 385 kts | 319° |
| 2026-04-16 21:17 | 48.02542 | -123.48221 | 30834 ft | 383 kts | 319° |
| 2026-04-16 21:17 | 48.04418 | -123.51036 | 31260 ft | 381 kts | 319° |
| 2026-04-16 21:17 | 48.06287 | -123.53833 | 31664 ft | 380 kts | 319° |
| 2026-04-16 21:18 | 48.08143 | -123.56634 | 32061 ft | 378 kts | 319° |
| 2026-04-16 21:18 | 48.09988 | -123.59435 | 32434 ft | 378 kts | 319° |
| 2026-04-16 21:18 | 48.11837 | -123.62223 | 32785 ft | 377 kts | 319° |
| 2026-04-16 21:18 | 48.13690 | -123.65004 | 33100 ft | 377 kts | 320° |
| 2026-04-16 21:19 | 48.15664 | -123.67565 | 33409 ft | 374 kts | 325° |
| 2026-04-16 21:19 | 48.17815 | -123.69734 | 33770 ft | 372 kts | 329° |
| 2026-04-16 21:19 | 48.20005 | -123.71788 | 34139 ft | 370 kts | 329° |
| 2026-04-16 21:19 | 48.22187 | -123.73825 | 34428 ft | 370 kts | 329° |
| 2026-04-16 21:20 | 48.24377 | -123.75872 | 34617 ft | 372 kts | 329° |
| 2026-04-16 21:20 | 48.26575 | -123.77932 | 34780 ft | 373 kts | 329° |
| 2026-04-16 21:20 | 48.28778 | -123.80005 | 34953 ft | 375 kts | 329° |
| 2026-04-16 21:20 | 48.30987 | -123.82089 | 35154 ft | 376 kts | 329° |
| 2026-04-16 21:21 | 48.33174 | -123.84157 | 35329 ft | 377 kts | 329° |
| 2026-04-16 21:21 | 48.35422 | -123.86288 | 35510 ft | 378 kts | 329° |
| 2026-04-16 21:21 | 48.37647 | -123.88400 | 35693 ft | 379 kts | 329° |
| 2026-04-16 21:21 | 48.39878 | -123.90520 | 35870 ft | 380 kts | 329° |
| 2026-04-16 21:22 | 48.42114 | -123.92647 | 35991 ft | 381 kts | 329° |
| 2026-04-16 21:22 | 48.44328 | -123.94757 | 36146 ft | 382 kts | 329° |
| 2026-04-16 21:22 | 48.46576 | -123.96902 | 36315 ft | 383 kts | 329° |
| 2026-04-16 21:22 | 48.48829 | -123.99053 | 36500 ft | 384 kts | 329° |
| 2026-04-16 21:23 | 48.51088 | -124.01212 | 36621 ft | 385 kts | 329° |
| 2026-04-16 21:23 | 48.53347 | -124.03373 | 36806 ft | 385 kts | 328° |
| 2026-04-16 21:23 | 48.55615 | -124.05542 | 36935 ft | 386 kts | 329° |
| 2026-04-16 21:23 | 48.57896 | -124.07703 | 37104 ft | 387 kts | 328° |
| 2026-04-16 21:24 | 48.60175 | -124.09891 | 37284 ft | 388 kts | 328° |
| 2026-04-16 21:24 | 48.62461 | -124.12084 | 37416 ft | 390 kts | 328° |
| 2026-04-16 21:24 | 48.64753 | -124.14296 | 37543 ft | 391 kts | 328° |
| 2026-04-16 21:24 | 48.67042 | -124.16536 | 37683 ft | 392 kts | 327° |
| 2026-04-16 21:25 | 48.69291 | -124.18856 | 37860 ft | 392 kts | 328° |
| 2026-04-16 21:25 | 48.71585 | -124.21083 | 38001 ft | 392 kts | 328° |
| 2026-04-16 21:25 | 48.73895 | -124.23276 | 38178 ft | 392 kts | 329° |
| 2026-04-16 21:26 | 48.78536 | -124.27687 | 38310 ft | 396 kts | 328° |
| 2026-04-16 21:26 | 48.83220 | -124.32183 | 38272 ft | 400 kts | 328° |
| 2026-04-16 21:27 | 48.87912 | -124.36733 | 38282 ft | 401 kts | 328° |
| 2026-04-16 21:27 | 48.92576 | -124.41276 | 38273 ft | 400 kts | 328° |
| 2026-04-16 21:28 | 48.97289 | -124.45757 | 38267 ft | 400 kts | 328° |
| 2026-04-16 21:28 | 49.01927 | -124.50432 | 38289 ft | 400 kts | 328° |
| 2026-04-16 21:29 | 49.06575 | -124.55126 | 38281 ft | 400 kts | 328° |
| 2026-04-16 21:29 | 49.11251 | -124.59691 | 38277 ft | 398 kts | 328° |
| 2026-04-16 21:30 | 49.15125 | -124.63448 | 38270 ft | 396 kts | 328° |
| 2026-04-16 21:30 | 49.19753 | -124.67998 | 38280 ft | 395 kts | 328° |
| 2026-04-16 21:31 | 49.24369 | -124.72552 | 38279 ft | 395 kts | 328° |
| 2026-04-16 21:31 | 49.28981 | -124.77110 | 38284 ft | 394 kts | 328° |
| 2026-04-16 21:32 | 49.33528 | -124.81795 | 38278 ft | 393 kts | 327° |
| 2026-04-16 21:32 | 49.38139 | -124.86308 | 38281 ft | 393 kts | 328° |
| 2026-04-16 21:33 | 49.42834 | -124.90631 | 38267 ft | 393 kts | 329° |
| 2026-04-16 21:33 | 49.47342 | -124.95384 | 38286 ft | 394 kts | 324° |
| 2026-04-16 21:34 | 49.51883 | -125.00138 | 38277 ft | 395 kts | 327° |
| 2026-04-16 21:34 | 49.56510 | -125.04717 | 38282 ft | 396 kts | 327° |
| 2026-04-16 21:35 | 49.61142 | -125.09323 | 38278 ft | 396 kts | 327° |
| 2026-04-16 21:35 | 49.65762 | -125.13964 | 38282 ft | 396 kts | 327° |
| 2026-04-16 21:36 | 49.70349 | -125.18599 | 38265 ft | 396 kts | 326° |
| 2026-04-16 21:36 | 49.74950 | -125.23267 | 38271 ft | 395 kts | 326° |
| 2026-04-16 21:37 | 49.79545 | -125.27940 | 38255 ft | 395 kts | 326° |
| 2026-04-16 21:37 | 49.84132 | -125.32614 | 38266 ft | 395 kts | 326° |
| 2026-04-16 21:38 | 49.88713 | -125.37295 | 38260 ft | 394 kts | 326° |
| 2026-04-16 21:38 | 49.93291 | -125.41984 | 38263 ft | 394 kts | 326° |
| 2026-04-16 21:39 | 49.97868 | -125.46681 | 38258 ft | 395 kts | 326° |
| 2026-04-16 21:39 | 50.02451 | -125.51395 | 38265 ft | 395 kts | 326° |
| 2026-04-16 21:40 | 50.07030 | -125.56116 | 38261 ft | 395 kts | 326° |
| 2026-04-16 21:40 | 50.11619 | -125.60842 | 38262 ft | 396 kts | 326° |
| 2026-04-16 21:41 | 50.16206 | -125.65596 | 38263 ft | 396 kts | 326° |
| 2026-04-16 21:41 | 50.20796 | -125.70372 | 38276 ft | 397 kts | 326° |
| 2026-04-16 21:42 | 50.25387 | -125.75155 | 38268 ft | 397 kts | 326° |
| 2026-04-16 21:42 | 50.29976 | -125.79955 | 38276 ft | 397 kts | 326° |
| 2026-04-16 21:43 | 50.34563 | -125.84760 | 38268 ft | 397 kts | 326° |
| 2026-04-16 21:43 | 50.39158 | -125.89563 | 38269 ft | 397 kts | 326° |
| 2026-04-16 21:44 | 50.43746 | -125.94377 | 38266 ft | 397 kts | 326° |
| 2026-04-16 21:44 | 50.48325 | -125.99198 | 38271 ft | 396 kts | 326° |
| 2026-04-16 21:45 | 50.52895 | -126.04022 | 38283 ft | 396 kts | 325° |
| 2026-04-16 21:45 | 50.57461 | -126.08855 | 38272 ft | 396 kts | 325° |
| 2026-04-16 21:46 | 50.62021 | -126.13691 | 38268 ft | 395 kts | 325° |
| 2026-04-16 21:46 | 50.66548 | -126.18505 | 38282 ft | 396 kts | 325° |
| 2026-04-16 21:47 | 50.71112 | -126.23372 | 38285 ft | 396 kts | 324° |
| 2026-04-16 21:47 | 50.75676 | -126.28232 | 38268 ft | 395 kts | 324° |
| 2026-04-16 21:48 | 50.80232 | -126.33118 | 38279 ft | 396 kts | 324° |
| 2026-04-16 21:48 | 50.84789 | -126.38013 | 38233 ft | 395 kts | 325° |
| 2026-04-16 21:49 | 50.89311 | -126.42955 | 38272 ft | 396 kts | 324° |
| 2026-04-16 21:49 | 50.93916 | -126.47690 | 38275 ft | 395 kts | 324° |
| 2026-04-16 21:50 | 50.98418 | -126.52616 | 38282 ft | 396 kts | 324° |
| 2026-04-16 21:50 | 51.02985 | -126.57651 | 38310 ft | 397 kts | 323° |
| 2026-04-16 21:51 | 51.07493 | -126.62676 | 38266 ft | 400 kts | 324° |
| 2026-04-16 21:51 | 51.12134 | -126.67682 | 38282 ft | 400 kts | 324° |
| 2026-04-16 21:52 | 51.16718 | -126.72641 | 38283 ft | 401 kts | 324° |
| 2026-04-16 21:52 | 51.21401 | -126.77423 | 38258 ft | 400 kts | 323° |
| 2026-04-16 21:53 | 51.25909 | -126.82600 | 38277 ft | 400 kts | 323° |
| 2026-04-16 21:53 | 51.30473 | -126.87710 | 38258 ft | 401 kts | 324° |
| 2026-04-16 21:54 | 51.35061 | -126.92782 | 38294 ft | 401 kts | 323° |
| 2026-04-16 21:54 | 51.39663 | -126.97879 | 38285 ft | 403 kts | 323° |
| 2026-04-16 21:55 | 51.44291 | -127.02998 | 38293 ft | 405 kts | 323° |
| 2026-04-16 21:55 | 51.48932 | -127.08124 | 38240 ft | 403 kts | 326° |
| 2026-04-16 21:56 | 51.53501 | -127.13092 | 38279 ft | 399 kts | 321° |
| 2026-04-16 21:56 | 51.58052 | -127.18354 | 38261 ft | 401 kts | 325° |
| 2026-04-16 21:57 | 51.62584 | -127.23548 | 38297 ft | 401 kts | 324° |
| 2026-04-16 21:57 | 51.67201 | -127.28648 | 38308 ft | 403 kts | 324° |
| 2026-04-16 21:58 | 51.71792 | -127.33756 | 38309 ft | 404 kts | 323° |
| 2026-04-16 21:58 | 51.76452 | -127.38811 | 38334 ft | 403 kts | 323° |
| 2026-04-16 21:59 | 51.81005 | -127.44130 | 38310 ft | 404 kts | 323° |
| 2026-04-16 21:59 | 51.85604 | -127.49385 | 38318 ft | 404 kts | 323° |
| 2026-04-16 22:00 | 51.90218 | -127.54582 | 38271 ft | 404 kts | 324° |
| 2026-04-16 22:00 | 51.94839 | -127.59707 | 38323 ft | 402 kts | 323° |
| 2026-04-16 22:01 | 51.99402 | -127.64995 | 38325 ft | 403 kts | 322° |
| 2026-04-16 22:01 | 52.03981 | -127.70291 | 38314 ft | 404 kts | 323° |
| 2026-04-16 22:02 | 52.08570 | -127.75573 | 38310 ft | 404 kts | 323° |
| 2026-04-16 22:02 | 52.13158 | -127.80859 | 38306 ft | 404 kts | 323° |
| 2026-04-16 22:03 | 52.17715 | -127.86125 | 38317 ft | 405 kts | 322° |
| 2026-04-16 22:03 | 52.22310 | -127.91438 | 38313 ft | 405 kts | 322° |
| 2026-04-16 22:04 | 52.26894 | -127.96758 | 38314 ft | 405 kts | 322° |
| 2026-04-16 22:04 | 52.31481 | -128.02110 | 38306 ft | 405 kts | 322° |
| 2026-04-16 22:05 | 52.36077 | -128.07455 | 38299 ft | 405 kts | 322° |
| 2026-04-16 22:05 | 52.40666 | -128.12810 | 38309 ft | 405 kts | 322° |
| 2026-04-16 22:06 | 52.45253 | -128.18184 | 38304 ft | 405 kts | 322° |
| 2026-04-16 22:06 | 52.52122 | -128.26263 | 38307 ft | 405 kts | 322° |
| 2026-04-16 22:07 | 52.56695 | -128.31656 | 38300 ft | 404 kts | 322° |
| 2026-04-16 22:07 | 52.61263 | -128.37047 | 38307 ft | 404 kts | 322° |
| 2026-04-16 22:08 | 52.65829 | -128.42470 | 38315 ft | 405 kts | 322° |
| 2026-04-16 22:08 | 52.70398 | -128.47910 | 38300 ft | 405 kts | 322° |
| 2026-04-16 22:09 | 52.74969 | -128.53357 | 38307 ft | 406 kts | 322° |
| 2026-04-16 22:09 | 52.79546 | -128.58836 | 38293 ft | 406 kts | 322° |
| 2026-04-16 22:10 | 52.84125 | -128.64313 | 38348 ft | 406 kts | 322° |
| 2026-04-16 22:10 | 52.88707 | -128.69814 | 38312 ft | 407 kts | 322° |
| 2026-04-16 22:11 | 52.93285 | -128.75339 | 38307 ft | 407 kts | 322° |
| 2026-04-16 22:11 | 52.97850 | -128.80883 | 38294 ft | 407 kts | 322° |
| 2026-04-16 22:12 | 53.02424 | -128.86403 | 38302 ft | 406 kts | 322° |
| 2026-04-16 22:12 | 53.06994 | -128.91946 | 38306 ft | 406 kts | 322° |
| 2026-04-16 22:13 | 53.11556 | -128.97492 | 38301 ft | 407 kts | 321° |
| 2026-04-16 22:13 | 53.16118 | -129.03074 | 38303 ft | 407 kts | 321° |
| 2026-04-16 22:14 | 53.20692 | -129.08678 | 38297 ft | 408 kts | 321° |
| 2026-04-16 22:14 | 53.25265 | -129.14294 | 38294 ft | 409 kts | 321° |
| 2026-04-16 22:15 | 53.29842 | -129.19928 | 38308 ft | 409 kts | 321° |
| 2026-04-16 22:15 | 53.34394 | -129.25548 | 38306 ft | 410 kts | 321° |
| 2026-04-16 22:16 | 53.38982 | -129.31228 | 38300 ft | 410 kts | 321° |
| 2026-04-16 22:16 | 53.43569 | -129.36920 | 38304 ft | 411 kts | 321° |
| 2026-04-16 22:17 | 53.47415 | -129.41707 | 38297 ft | 411 kts | 321° |
| 2026-04-16 22:17 | 53.52009 | -129.47426 | 38304 ft | 410 kts | 321° |
| 2026-04-16 22:18 | 53.56584 | -129.53149 | 38292 ft | 410 kts | 321° |
| 2026-04-16 22:18 | 53.61117 | -129.58832 | 38309 ft | 408 kts | 321° |
| 2026-04-16 22:19 | 53.65668 | -129.64566 | 38309 ft | 408 kts | 321° |
| 2026-04-16 22:19 | 53.70221 | -129.70318 | 38293 ft | 409 kts | 321° |
| 2026-04-16 22:20 | 53.74781 | -129.76068 | 38306 ft | 408 kts | 321° |
| 2026-04-16 22:20 | 53.79327 | -129.81836 | 38316 ft | 409 kts | 320° |
| 2026-04-16 22:21 | 53.83875 | -129.87636 | 38301 ft | 410 kts | 320° |
| 2026-04-16 22:21 | 53.88428 | -129.93440 | 38302 ft | 410 kts | 320° |
| 2026-04-16 22:22 | 53.92989 | -129.99279 | 38314 ft | 411 kts | 320° |
| 2026-04-16 22:22 | 53.97554 | -130.05136 | 38316 ft | 412 kts | 320° |
| 2026-04-16 22:23 | 54.02123 | -130.11017 | 38312 ft | 412 kts | 320° |
| 2026-04-16 22:23 | 54.06694 | -130.16913 | 38312 ft | 412 kts | 320° |
| 2026-04-16 22:24 | 54.11263 | -130.22823 | 38310 ft | 413 kts | 320° |
| 2026-04-16 22:24 | 54.15839 | -130.28760 | 38319 ft | 414 kts | 320° |
| 2026-04-16 22:25 | 54.20387 | -130.34679 | 38304 ft | 414 kts | 320° |
| 2026-04-16 22:25 | 54.24969 | -130.40656 | 38325 ft | 414 kts | 320° |
| 2026-04-16 22:26 | 54.29493 | -130.46759 | 38326 ft | 414 kts | 318° |
| 2026-04-16 22:26 | 54.31697 | -130.49887 | 38074 ft | 411 kts | 318° |
| 2026-04-16 22:26 | 54.33905 | -130.53050 | 37193 ft | 413 kts | 317° |
| 2026-04-16 22:27 | 54.36098 | -130.56196 | 36562 ft | 409 kts | 317° |
| 2026-04-16 22:27 | 54.38274 | -130.59312 | 35924 ft | 406 kts | 317° |
| 2026-04-16 22:27 | 54.40445 | -130.62416 | 35152 ft | 407 kts | 317° |
| 2026-04-16 22:27 | 54.42617 | -130.65520 | 34388 ft | 407 kts | 317° |
| 2026-04-16 22:28 | 54.44795 | -130.68632 | 33472 ft | 407 kts | 317° |
| 2026-04-16 22:28 | 54.46975 | -130.71747 | 32586 ft | 408 kts | 317° |
| 2026-04-16 22:28 | 54.49156 | -130.74868 | 31699 ft | 408 kts | 317° |
| 2026-04-16 22:28 | 54.51338 | -130.77993 | 30790 ft | 409 kts | 317° |
| 2026-04-16 22:29 | 54.53511 | -130.81109 | 30112 ft | 403 kts | 318° |
| 2026-04-16 22:29 | 54.55652 | -130.84180 | 29394 ft | 396 kts | 318° |
| 2026-04-16 22:29 | 54.57747 | -130.87188 | 28740 ft | 389 kts | 318° |
| 2026-04-16 22:29 | 54.59812 | -130.90163 | 28105 ft | 383 kts | 318° |
| 2026-04-16 22:30 | 54.61845 | -130.93098 | 27474 ft | 378 kts | 318° |
| 2026-04-16 22:30 | 54.63843 | -130.95985 | 26843 ft | 373 kts | 318° |
| 2026-04-16 22:30 | 54.65820 | -130.98846 | 26206 ft | 368 kts | 318° |
| 2026-04-16 22:30 | 54.67773 | -131.01675 | 25587 ft | 364 kts | 318° |
| 2026-04-16 22:31 | 54.69705 | -131.04477 | 24974 ft | 361 kts | 318° |
| 2026-04-16 22:31 | 54.71617 | -131.07254 | 24377 ft | 357 kts | 318° |
| 2026-04-16 22:31 | 54.73511 | -131.10009 | 23751 ft | 355 kts | 318° |
| 2026-04-16 22:31 | 54.75392 | -131.12748 | 23042 ft | 352 kts | 318° |
| 2026-04-16 22:32 | 54.77249 | -131.15455 | 22431 ft | 347 kts | 319° |
| 2026-04-16 22:32 | 54.79083 | -131.18131 | 21824 ft | 342 kts | 319° |
| 2026-04-16 22:32 | 54.80891 | -131.20772 | 21217 ft | 338 kts | 319° |
| 2026-04-16 22:32 | 54.82683 | -131.23393 | 20612 ft | 335 kts | 319° |
| 2026-04-16 22:33 | 54.84455 | -131.25989 | 20021 ft | 332 kts | 319° |
| 2026-04-16 22:33 | 54.86214 | -131.28570 | 19435 ft | 330 kts | 319° |
| 2026-04-16 22:33 | 54.87959 | -131.31132 | 18852 ft | 327 kts | 319° |
| 2026-04-16 22:33 | 54.89694 | -131.33678 | 18216 ft | 325 kts | 319° |
| 2026-04-16 22:34 | 54.91392 | -131.36176 | 17590 ft | 323 kts | 319° |
| 2026-04-16 22:34 | 54.93098 | -131.38693 | 17000 ft | 320 kts | 319° |
| 2026-04-16 22:34 | 54.94803 | -131.41214 | 16201 ft | 323 kts | 319° |
| 2026-04-16 22:34 | 54.96516 | -131.43744 | 15569 ft | 323 kts | 319° |
| 2026-04-16 22:35 | 54.98223 | -131.46265 | 14969 ft | 321 kts | 319° |
| 2026-04-16 22:35 | 54.99916 | -131.48770 | 14394 ft | 319 kts | 319° |
| 2026-04-16 22:35 | 55.01604 | -131.51269 | 13795 ft | 317 kts | 319° |
| 2026-04-16 22:35 | 55.03280 | -131.53754 | 13165 ft | 315 kts | 319° |
| 2026-04-16 22:36 | 55.04943 | -131.56224 | 12598 ft | 312 kts | 319° |
| 2026-04-16 22:36 | 55.06595 | -131.58661 | 12020 ft | 310 kts | 320° |
| 2026-04-16 22:36 | 55.08285 | -131.60993 | 11432 ft | 309 kts | 321° |
| 2026-04-16 22:36 | 55.09983 | -131.63276 | 10869 ft | 307 kts | 321° |
| 2026-04-16 22:37 | 55.11666 | -131.65535 | 10496 ft | 300 kts | 321° |
| 2026-04-16 22:37 | 55.13277 | -131.67707 | 10369 ft | 288 kts | 321° |
| 2026-04-16 22:37 | 55.14842 | -131.69828 | 10246 ft | 283 kts | 321° |
| 2026-04-16 22:37 | 55.16377 | -131.71918 | 10113 ft | 273 kts | 321° |
| 2026-04-16 22:38 | 55.17822 | -131.73886 | 9984 ft | 256 kts | 321° |
| 2026-04-16 22:38 | 55.19204 | -131.75776 | 9722 ft | 248 kts | 321° |
| 2026-04-16 22:38 | 55.20550 | -131.77614 | 9379 ft | 247 kts | 321° |
| 2026-04-16 22:38 | 55.21900 | -131.79455 | 9051 ft | 245 kts | 321° |
| 2026-04-16 22:39 | 55.23245 | -131.81294 | 8682 ft | 246 kts | 320° |
| 2026-04-16 22:39 | 55.24579 | -131.83136 | 8369 ft | 243 kts | 320° |
| 2026-04-16 22:39 | 55.25907 | -131.84965 | 8028 ft | 242 kts | 320° |
| 2026-04-16 22:39 | 55.27236 | -131.86795 | 7694 ft | 244 kts | 320° |
| 2026-04-16 22:40 | 55.28594 | -131.88664 | 7361 ft | 253 kts | 320° |
| 2026-04-16 22:40 | 55.29998 | -131.90601 | 7005 ft | 259 kts | 320° |
| 2026-04-16 22:40 | 55.31394 | -131.92525 | 6634 ft | 258 kts | 320° |
| 2026-04-16 22:40 | 55.32802 | -131.94468 | 6244 ft | 256 kts | 320° |
| 2026-04-16 22:41 | 55.34197 | -131.96395 | 5938 ft | 252 kts | 321° |
| 2026-04-16 22:41 | 55.35544 | -131.98255 | 5822 ft | 241 kts | 320° |
| 2026-04-16 22:41 | 55.36837 | -132.00043 | 5715 ft | 231 kts | 320° |
| 2026-04-16 22:41 | 55.38074 | -132.01758 | 5602 ft | 222 kts | 320° |
| 2026-04-16 22:42 | 55.39258 | -132.03397 | 5502 ft | 212 kts | 320° |
| 2026-04-16 22:42 | 55.40400 | -132.04959 | 5329 ft | 206 kts | 322° |
| 2026-04-16 22:42 | 55.41653 | -132.06134 | 5154 ft | 206 kts | 338° |
| 2026-04-16 22:42 | 55.43070 | -132.06646 | 4928 ft | 209 kts | 354° |
| 2026-04-16 22:43 | 55.44523 | -132.06421 | 4697 ft | 213 kts | 11° |
| 2026-04-16 22:43 | 55.45903 | -132.05472 | 4464 ft | 215 kts | 28° |
| 2026-04-16 22:43 | 55.47084 | -132.03862 | 4229 ft | 216 kts | 45° |
| 2026-04-16 22:43 | 55.47950 | -132.01740 | 4021 ft | 211 kts | 62° |
| 2026-04-16 22:44 | 55.48425 | -131.99335 | 3769 ft | 206 kts | 79° |
| 2026-04-16 22:44 | 55.48498 | -131.96863 | 3538 ft | 200 kts | 96° |
| 2026-04-16 22:44 | 55.48213 | -131.94506 | 3318 ft | 193 kts | 111° |
| 2026-04-16 22:44 | 55.47609 | -131.92443 | 3102 ft | 188 kts | 129° |
| 2026-04-16 22:45 | 55.46770 | -131.90703 | 2915 ft | 186 kts | 135° |
| 2026-04-16 22:45 | 55.45860 | -131.89091 | 2721 ft | 184 kts | 137° |
| 2026-04-16 22:45 | 55.44951 | -131.87528 | 2561 ft | 180 kts | 138° |
| 2026-04-16 22:45 | 55.44061 | -131.86002 | 2397 ft | 178 kts | 137° |
| 2026-04-16 22:46 | 55.43167 | -131.84469 | 2153 ft | 179 kts | 137° |
| 2026-04-16 22:46 | 55.42303 | -131.82983 | 1892 ft | 167 kts | 138° |
| 2026-04-16 22:46 | 55.41509 | -131.81617 | 1692 ft | 151 kts | 139° |
| 2026-04-16 22:46 | 55.40780 | -131.80365 | 1441 ft | 141 kts | 138° |
| 2026-04-16 22:47 | 55.40103 | -131.79203 | 1239 ft | 132 kts | 136° |
| 2026-04-16 22:47 | 55.39439 | -131.78062 | 1061 ft | 134 kts | 136° |
| 2026-04-16 22:47 | 55.38753 | -131.76913 | 880 ft | 139 kts | 137° |
| 2026-04-16 22:47 | 55.38056 | -131.75717 | 660 ft | 140 kts | 133° |
| 2026-04-16 22:48 | 55.37386 | -131.74522 | 472 ft | 133 kts | 134° |
| 2026-04-16 22:48 | 55.36735 | -131.73394 | 296 ft | 131 kts | 134° |
| 2026-04-16 22:48 | 55.36091 | -131.72306 | 120 ft | 126 kts | 134° |
| 2026-04-16 22:48 | 55.35548 | -131.71364 | 97 ft | 82 kts | 136° |
| 2026-04-16 22:49 | 55.35267 | -131.70879 | 99 ft | 46 kts | 136° |
| 2026-04-16 22:49 | 55.35057 | -131.70516 | 97 ft | 39 kts | 135° |
| 2026-04-16 22:49 | 55.34889 | -131.70229 | 99 ft | 20 kts | 135° |
| 2026-04-16 22:49 | 55.34872 | -131.70058 | 100 ft | 16 kts | 45° |
| 2026-04-16 22:50 | 55.34968 | -131.70090 | 100 ft | 15 kts | 318° |
| 2026-04-16 22:50 | 55.35044 | -131.70213 | 99 ft | 14 kts | 317° |
| 2026-04-16 22:50 | 55.35118 | -131.70337 | 94 ft | 16 kts | 316° |
| 2026-04-16 22:50 | 55.35193 | -131.70457 | 86 ft | 13 kts | 314° |
| 2026-04-16 22:51 | 55.35273 | -131.70584 | 59 ft | 19 kts | 321° |
| 2026-04-16 22:51 | 55.35378 | -131.70753 | 47 ft | 20 kts | 314° |
| 2026-04-16 22:51 | 55.35481 | -131.70926 | 38 ft | 14 kts | 316° |
| 2026-04-16 22:51 | 55.35537 | -131.71026 | 39 ft | 10 kts | 313° |
| 2026-04-16 22:52 | 55.35581 | -131.71076 | 41 ft | 6 kts | 17° |
| 2026-04-16 22:52 | 55.35608 | -131.71033 | 39 ft | 4 kts | 46° |
| 2026-04-16 22:52 | 55.35626 | -131.71000 | 38 ft | 3 kts | 46° |
| 2026-04-16 22:52 | 55.35635 | -131.70984 | 41 ft | 0 kts | 46° |